createdAt,value
2023-04-15T00:01:11.725Z,5.88
2023-04-15T00:03:14.672Z,5.18
2023-04-15T00:05:17.500Z,4.93
2023-04-15T00:07:21.420Z,4.78
2023-04-15T00:09:23.985Z,4.90
2023-04-15T00:11:26.524Z,5.28
2023-04-15T00:13:29.547Z,4.95
2023-04-15T00:15:32.741Z,5.18
2023-04-15T00:17:35.340Z,4.68
2023-04-15T00:19:38.299Z,5.13
2023-04-15T00:21:41.314Z,5.57
2023-04-15T00:23:45.252Z,6.00
2023-04-15T00:25:48.383Z,5.93
2023-04-15T00:27:50.935Z,6.03
2023-04-15T00:29:53.603Z,4.97
2023-04-15T00:31:56.935Z,5.13
2023-04-15T00:33:59.704Z,5.35
2023-04-15T00:36:02.804Z,5.25
2023-04-15T00:38:05.651Z,4.68
2023-04-15T00:40:13.664Z,5.18
2023-04-15T00:42:16.529Z,5.10
2023-04-15T00:44:20.000Z,5.00
2023-04-15T00:46:23.794Z,4.57
2023-04-15T00:48:27.919Z,5.18
2023-04-15T00:50:30.461Z,5.28
2023-04-15T00:52:33.080Z,5.00
2023-04-15T00:54:36.431Z,4.70
2023-04-15T00:56:40.946Z,4.95
2023-04-15T00:58:46.445Z,4.90
2023-04-15T01:00:49.181Z,5.30
2023-04-15T01:02:51.863Z,4.97
2023-04-15T01:04:54.583Z,4.47
2023-04-15T01:06:57.423Z,4.75
2023-04-15T01:09:01.535Z,4.60
2023-04-15T01:11:04.814Z,5.00
2023-04-15T01:13:09.167Z,5.03
2023-04-15T01:15:12.093Z,4.80
2023-04-15T01:17:14.874Z,4.82
2023-04-15T01:19:18.733Z,5.07
2023-04-15T01:21:21.942Z,4.78
2023-04-15T01:23:24.600Z,4.57
2023-04-15T01:25:33.920Z,4.60
2023-04-15T01:27:36.904Z,4.38
2023-04-15T01:29:39.883Z,4.72
2023-04-15T01:31:42.444Z,4.43
2023-04-15T01:33:45.003Z,4.63
2023-04-15T01:35:47.822Z,5.10
2023-04-15T01:37:51.194Z,4.15
2023-04-15T01:39:53.780Z,4.80
2023-04-15T01:41:58.125Z,4.60
2023-04-15T01:44:00.708Z,4.38
2023-04-15T01:46:04.164Z,4.30
2023-04-15T01:48:07.290Z,4.60
2023-04-15T01:50:10.707Z,4.82
2023-04-15T01:52:13.283Z,4.93
2023-04-15T01:54:16.216Z,4.55
2023-04-15T01:56:18.795Z,4.68
2023-04-15T01:58:23.071Z,4.90
2023-04-15T02:00:25.662Z,5.22
2023-04-15T02:02:28.293Z,5.07
2023-04-15T02:04:31.684Z,5.45
2023-04-15T02:06:34.325Z,5.15
2023-04-15T02:08:36.850Z,5.07
2023-04-15T02:10:40.016Z,5.05
2023-04-15T02:12:42.561Z,4.20
2023-04-15T02:14:47.159Z,4.78
2023-04-15T02:16:49.733Z,4.97
2023-04-15T02:18:52.712Z,4.60
2023-04-15T02:20:56.622Z,5.03
2023-04-15T02:22:59.283Z,5.13
2023-04-15T02:25:01.910Z,4.97
2023-04-15T02:27:04.546Z,4.50
2023-04-15T02:29:07.101Z,4.97
2023-04-15T02:31:11.163Z,4.95
2023-04-15T02:33:13.710Z,4.57
2023-04-15T02:35:16.577Z,4.78
2023-04-15T02:37:20.336Z,4.63
2023-04-15T02:39:22.879Z,5.47
2023-04-15T02:41:27.715Z,4.50
2023-04-15T02:43:30.523Z,4.35
2023-04-15T02:45:33.071Z,4.53
2023-04-15T02:47:37.340Z,4.55
2023-04-15T02:49:40.232Z,4.40
2023-04-15T02:51:42.968Z,4.28
2023-04-15T02:53:45.516Z,4.13
2023-04-15T02:55:48.068Z,4.07
2023-04-15T02:57:50.771Z,4.40
2023-04-15T02:59:53.308Z,3.90
2023-04-15T03:02:00.771Z,4.03
2023-04-15T03:04:07.744Z,4.20
2023-04-15T03:06:10.658Z,3.63
2023-04-15T03:08:14.675Z,4.03
2023-04-15T03:10:17.260Z,4.28
2023-04-15T03:12:19.848Z,4.47
2023-04-15T03:14:22.431Z,4.28
2023-04-15T03:16:25.014Z,4.10
2023-04-15T03:18:28.790Z,4.72
2023-04-15T03:20:32.707Z,5.35
2023-04-15T03:22:35.460Z,4.72
2023-04-15T03:24:38.020Z,4.82
2023-04-15T03:26:40.699Z,4.53
2023-04-15T03:28:43.226Z,4.25
2023-04-15T03:30:45.782Z,3.80
2023-04-15T03:32:48.328Z,4.60
2023-04-15T03:34:51.034Z,4.82
2023-04-15T03:36:55.100Z,4.70
2023-04-15T03:38:57.835Z,4.18
2023-04-15T03:41:00.374Z,4.47
2023-04-15T03:43:02.908Z,4.20
2023-04-15T03:45:06.520Z,4.47
2023-04-15T03:47:09.082Z,3.88
2023-04-15T03:49:11.898Z,4.32
2023-04-15T03:51:14.421Z,4.00
2023-04-15T03:53:18.297Z,4.00
2023-04-15T03:55:20.834Z,4.82
2023-04-15T03:57:23.391Z,4.60
2023-04-15T03:59:25.930Z,3.92
2023-04-15T04:01:28.471Z,4.47
2023-04-15T04:03:31.129Z,3.97
2023-04-15T04:05:33.829Z,4.40
2023-04-15T04:07:36.583Z,4.30
2023-04-15T04:09:42.004Z,3.92
2023-04-15T04:11:45.549Z,4.28
2023-04-15T04:13:48.090Z,4.40
2023-04-15T04:15:50.698Z,4.20
2023-04-15T04:17:53.388Z,4.03
2023-04-15T04:19:56.078Z,4.03
2023-04-15T04:21:58.722Z,4.57
2023-04-15T04:24:01.484Z,3.90
2023-04-15T04:26:05.387Z,4.15
2023-04-15T04:28:07.975Z,4.32
2023-04-15T04:30:10.807Z,3.83
2023-04-15T04:32:13.371Z,4.13
2023-04-15T04:34:16.010Z,3.80
2023-04-15T04:36:18.586Z,4.35
2023-04-15T04:38:21.230Z,3.88
2023-04-15T04:40:23.779Z,3.45
2023-04-15T04:42:27.681Z,3.78
2023-04-15T04:44:30.232Z,4.00
2023-04-15T04:46:32.829Z,4.28
2023-04-15T04:48:35.381Z,4.32
2023-04-15T04:50:38.010Z,3.85
2023-04-15T04:52:40.627Z,3.80
2023-04-15T04:54:43.176Z,3.58
2023-04-15T04:56:45.742Z,4.13
2023-04-15T04:58:49.640Z,5.10
2023-04-15T05:00:52.327Z,3.90
2023-04-15T05:02:55.018Z,4.00
2023-04-15T05:04:57.632Z,3.45
2023-04-15T05:07:00.269Z,3.35
2023-04-15T05:09:03.402Z,3.50
2023-04-15T05:11:06.412Z,3.47
2023-04-15T05:13:08.963Z,4.28
2023-04-15T05:15:13.197Z,3.67
2023-04-15T05:17:15.727Z,3.58
2023-04-15T05:19:18.275Z,4.22
2023-04-15T05:21:21.157Z,3.55
2023-04-15T05:23:23.718Z,3.53
2023-04-15T05:25:26.981Z,3.90
2023-04-15T05:27:29.517Z,3.22
2023-04-15T05:29:32.083Z,3.80
2023-04-15T05:31:36.199Z,3.78
2023-04-15T05:33:38.919Z,3.17
2023-04-15T05:35:41.452Z,3.80
2023-04-15T05:37:44.156Z,3.63
2023-04-15T05:39:46.663Z,3.50
2023-04-15T05:41:49.297Z,3.88
2023-04-15T05:43:51.876Z,3.00
2023-04-15T05:45:54.474Z,3.78
2023-04-15T05:47:58.423Z,3.35
2023-04-15T05:50:01.061Z,3.63
2023-04-15T05:52:03.700Z,3.38
2023-04-15T05:54:06.815Z,3.67
2023-04-15T05:56:09.396Z,3.42
2023-04-15T05:58:12.514Z,4.30
2023-04-15T06:00:16.385Z,3.80
2023-04-15T06:02:19.152Z,3.83
2023-04-15T06:04:23.223Z,3.60
2023-04-15T06:06:27.193Z,3.83
2023-04-15T06:08:29.811Z,4.45
2023-04-15T06:10:36.417Z,3.45
2023-04-15T06:12:39.099Z,3.95
2023-04-15T06:14:41.811Z,4.07
2023-04-15T06:16:44.408Z,3.80
2023-04-15T06:18:46.985Z,3.80
2023-04-15T06:20:50.957Z,4.25
2023-04-15T06:22:53.753Z,3.88
2023-04-15T06:24:56.475Z,4.20
2023-04-15T06:26:59.023Z,4.03
2023-04-15T06:29:01.818Z,4.00
2023-04-15T06:31:04.681Z,4.00
2023-04-15T06:33:07.449Z,4.43
2023-04-15T06:35:10.729Z,4.57
2023-04-15T06:37:16.302Z,4.72
2023-04-15T06:39:18.903Z,5.15
2023-04-15T06:41:21.514Z,4.57
2023-04-15T06:43:24.177Z,4.57
2023-04-15T06:45:27.371Z,4.20
2023-04-15T06:47:29.972Z,3.33
2023-04-15T06:49:33.658Z,4.30
2023-04-15T06:51:36.916Z,3.55
2023-04-15T06:53:42.488Z,3.83
2023-04-15T06:55:45.023Z,4.00
2023-04-15T06:57:47.576Z,3.55
2023-04-15T06:59:50.344Z,4.65
2023-04-15T07:01:53.004Z,4.63
2023-04-15T07:03:55.635Z,4.80
2023-04-15T07:05:58.693Z,4.40
2023-04-15T07:08:01.284Z,3.70
2023-04-15T07:10:06.026Z,4.13
2023-04-15T07:12:08.583Z,3.95
2023-04-15T07:14:11.518Z,4.03
2023-04-15T07:16:14.416Z,4.72
2023-04-15T07:18:17.011Z,4.97
2023-04-15T07:20:19.789Z,4.20
2023-04-15T07:22:22.314Z,4.65
2023-04-15T07:24:26.744Z,4.90
2023-04-15T07:26:30.852Z,5.25
2023-04-15T07:28:33.391Z,4.88
2023-04-15T07:30:36.039Z,4.75
2023-04-15T07:32:38.613Z,5.25
2023-04-15T07:34:41.549Z,4.53
2023-04-15T07:36:44.428Z,4.60
2023-04-15T07:38:46.973Z,5.22
2023-04-15T07:40:49.581Z,5.13
2023-04-15T07:42:53.493Z,4.60
2023-04-15T07:44:56.187Z,5.05
2023-04-15T07:46:58.749Z,4.15
2023-04-15T07:49:01.441Z,4.20
2023-04-15T07:51:04.414Z,4.38
2023-04-15T07:53:07.843Z,4.32
2023-04-15T07:55:11.463Z,4.32
2023-04-15T07:57:14.025Z,4.47
2023-04-15T07:59:18.872Z,3.17
2023-04-15T08:01:21.548Z,4.18
2023-04-15T08:03:24.526Z,4.47
2023-04-15T08:05:27.170Z,4.53
2023-04-15T08:07:29.744Z,3.78
2023-04-15T08:09:32.290Z,3.92
2023-04-15T08:11:34.999Z,3.78
2023-04-15T08:13:37.558Z,4.03
2023-04-15T08:15:41.462Z,3.90
2023-04-15T08:17:44.141Z,3.63
2023-04-15T08:19:48.290Z,3.70
2023-04-15T08:21:51.053Z,3.90
2023-04-15T08:23:54.451Z,3.47
2023-04-15T08:25:57.180Z,4.30
2023-04-15T08:27:59.732Z,3.72
2023-04-15T08:30:04.205Z,3.83
2023-04-15T08:32:09.555Z,3.88
2023-04-15T08:34:12.564Z,3.95
2023-04-15T08:36:15.147Z,3.67
2023-04-15T08:38:18.127Z,3.80
2023-04-15T08:40:22.714Z,3.33
2023-04-15T08:42:31.792Z,3.50
2023-04-15T08:44:36.845Z,3.42
2023-04-15T08:46:40.022Z,3.80
2023-04-15T08:48:45.093Z,3.80
2023-04-15T08:50:48.766Z,3.78
2023-04-15T08:52:54.783Z,3.90
2023-04-15T08:54:59.714Z,3.80
2023-04-15T08:57:03.801Z,4.15
2023-04-15T08:59:07.186Z,3.75
2023-04-15T09:01:09.966Z,4.22
2023-04-15T09:03:12.699Z,3.97
2023-04-15T09:05:17.446Z,3.50
2023-04-15T09:07:20.067Z,3.75
2023-04-15T09:09:22.692Z,4.03
2023-04-15T09:11:25.639Z,4.10
2023-04-15T09:13:28.185Z,4.28
2023-04-15T09:15:33.749Z,4.55
2023-04-15T09:17:36.355Z,3.88
2023-04-15T09:19:38.956Z,3.90
2023-04-15T09:21:42.921Z,4.45
2023-04-15T09:23:56.668Z,4.32
2023-04-15T09:25:59.480Z,4.25
2023-04-15T09:28:03.084Z,3.90
2023-04-15T09:30:09.956Z,5.00
2023-04-15T09:32:13.887Z,3.67
2023-04-15T09:34:16.570Z,4.00
2023-04-15T09:36:19.190Z,4.00
2023-04-15T09:38:23.087Z,3.60
2023-04-15T09:40:37.124Z,4.03
2023-04-15T09:42:55.944Z,4.57
2023-04-15T09:45:09.567Z,3.65
2023-04-15T09:47:28.987Z,4.07
2023-04-15T09:49:31.629Z,3.75
2023-04-15T09:51:36.089Z,3.55
2023-04-15T09:53:39.962Z,3.47
2023-04-15T09:55:46.083Z,3.47
2023-04-15T09:57:51.751Z,3.65
2023-04-15T09:59:54.394Z,4.10
2023-04-15T10:01:57.274Z,3.08
2023-04-15T10:04:03.340Z,4.05
2023-04-15T10:06:06.395Z,3.22
2023-04-15T10:08:09.683Z,4.00
2023-04-15T10:10:14.354Z,3.33
2023-04-15T10:12:18.012Z,3.38
2023-04-15T10:14:21.751Z,4.10
2023-04-15T10:16:28.432Z,3.25
2023-04-15T10:18:35.651Z,3.58
2023-04-15T10:20:39.023Z,3.42
2023-04-15T10:22:43.215Z,2.80
2023-04-15T10:24:47.147Z,3.25
2023-04-15T10:26:52.043Z,3.67
2023-04-15T10:28:55.360Z,3.58
2023-04-15T10:30:59.699Z,3.47
2023-04-15T10:33:04.118Z,3.17
2023-04-15T10:35:08.793Z,3.50
2023-04-15T10:37:12.069Z,3.13
2023-04-15T10:39:40.200Z,3.35
2023-04-15T10:41:42.796Z,3.25
2023-04-15T10:43:54.159Z,3.63
2023-04-15T10:45:56.777Z,2.58
2023-04-15T10:48:03.614Z,3.08
2023-04-15T10:50:07.527Z,3.42
2023-04-15T10:52:10.159Z,3.13
2023-04-15T10:54:15.645Z,3.33
2023-04-15T10:56:18.559Z,3.17
2023-04-15T10:58:24.893Z,3.45
2023-04-15T11:00:30.598Z,3.03
2023-04-15T11:02:45.127Z,3.38
2023-04-15T11:04:56.263Z,3.30
2023-04-15T11:07:07.390Z,3.47
2023-04-15T11:09:29.987Z,2.70
2023-04-15T11:12:07.434Z,2.85
2023-04-15T11:14:16.221Z,3.20
2023-04-15T11:16:20.317Z,3.65
2023-04-15T11:18:24.362Z,2.83
2023-04-15T11:20:27.451Z,3.20
2023-04-15T11:22:30.518Z,2.40
2023-04-15T11:24:33.049Z,3.17
2023-04-15T11:26:35.618Z,3.35
2023-04-15T11:28:40.071Z,3.00
2023-04-15T11:30:43.741Z,3.25
2023-04-15T11:32:47.626Z,2.95
2023-04-15T11:34:50.217Z,3.15
2023-04-15T11:36:52.800Z,3.35
2023-04-15T11:38:55.629Z,2.70
2023-04-15T11:40:58.560Z,3.03
2023-04-15T11:43:08.746Z,2.75
2023-04-15T11:45:13.358Z,2.75
2023-04-15T11:47:25.159Z,2.53
2023-04-15T11:51:33.907Z,2.40
2023-04-15T11:53:41.498Z,2.72
2023-04-15T11:55:46.893Z,2.97
2023-04-15T11:57:49.456Z,2.55
2023-04-15T11:59:56.310Z,2.65
2023-04-15T12:01:59.678Z,2.80
2023-04-15T12:04:03.872Z,2.45
2023-04-15T12:06:17.684Z,2.65
2023-04-15T12:08:20.502Z,2.92
2023-04-15T12:10:25.619Z,2.40
2023-04-15T12:12:28.762Z,2.75
2023-04-15T12:14:32.527Z,2.60
2023-04-15T12:16:48.287Z,3.05
2023-04-15T12:18:53.367Z,2.80
2023-04-15T12:20:55.974Z,2.42
2023-04-15T12:23:07.732Z,2.70
2023-04-15T12:25:12.739Z,2.70
2023-04-15T12:27:16.841Z,2.97
2023-04-15T12:29:19.880Z,3.08
2023-04-15T12:31:22.888Z,3.00
2023-04-15T12:33:33.505Z,2.63
2023-04-15T12:35:36.101Z,3.25
2023-04-15T12:37:38.685Z,2.97
2023-04-15T12:39:44.060Z,2.72
2023-04-15T12:41:46.597Z,2.80
2023-04-15T12:43:49.168Z,2.88
2023-04-15T12:45:51.712Z,2.92
2023-04-15T12:47:54.251Z,3.00
2023-04-15T12:49:56.859Z,3.13
2023-04-15T12:52:01.065Z,2.60
2023-04-15T12:54:03.922Z,2.60
2023-04-15T12:56:08.338Z,2.63
2023-04-15T12:58:11.726Z,2.90
2023-04-15T13:00:15.608Z,2.80
2023-04-15T13:02:18.800Z,2.60
2023-04-15T13:04:22.790Z,2.22
2023-04-15T13:06:25.699Z,3.38
2023-04-15T13:08:28.267Z,2.60
2023-04-15T13:10:31.569Z,2.53
2023-04-15T13:12:36.735Z,3.20
2023-04-15T13:14:39.272Z,3.20
2023-04-15T13:16:41.925Z,3.33
2023-04-15T13:18:45.579Z,3.22
2023-04-15T13:20:48.664Z,3.80
2023-04-15T13:22:51.439Z,3.80
2023-04-15T13:24:53.990Z,4.00
2023-04-15T13:26:58.915Z,3.60
2023-04-15T13:29:02.918Z,3.95
2023-04-15T13:31:06.616Z,3.83
2023-04-15T13:33:09.142Z,4.03
2023-04-15T13:35:11.766Z,3.88
2023-04-15T13:37:14.332Z,4.28
2023-04-15T13:39:16.914Z,3.83
2023-04-15T13:41:20.039Z,3.55
2023-04-15T13:43:22.649Z,3.47
2023-04-15T13:45:26.902Z,3.65
2023-04-15T13:47:29.734Z,3.65
2023-04-15T13:49:32.385Z,4.13
2023-04-15T13:51:36.337Z,3.30
2023-04-15T13:53:39.792Z,3.50
2023-04-15T13:55:42.771Z,3.28
2023-04-15T13:57:45.737Z,2.90
2023-04-15T13:59:48.940Z,3.00
2023-04-15T14:01:53.057Z,3.20
2023-04-15T14:03:56.053Z,2.83
2023-04-15T14:05:58.799Z,3.03
2023-04-15T14:08:01.707Z,2.80
2023-04-15T14:10:04.770Z,3.58
2023-04-15T14:12:07.320Z,3.35
2023-04-15T14:14:09.858Z,3.35
2023-04-15T14:16:12.694Z,2.65
2023-04-15T14:18:16.786Z,2.90
2023-04-15T14:20:19.507Z,3.10
2023-04-15T14:22:22.078Z,2.97
2023-04-15T14:24:24.598Z,3.08
2023-04-15T14:26:27.244Z,3.38
2023-04-15T14:28:30.334Z,3.15
2023-04-15T14:30:32.925Z,3.05
2023-04-15T14:32:35.552Z,3.35
2023-04-15T14:34:39.474Z,3.28
2023-04-15T14:36:42.552Z,3.40
2023-04-15T14:38:45.783Z,3.33
2023-04-15T14:40:49.537Z,3.15
2023-04-15T14:42:52.116Z,3.25
2023-04-15T14:44:54.660Z,3.15
2023-04-15T14:46:57.262Z,3.25
2023-04-15T14:48:59.858Z,4.57
2023-04-15T14:51:03.942Z,3.13
2023-04-15T14:53:06.521Z,2.95
2023-04-15T14:55:11.494Z,3.13
2023-04-15T14:57:14.145Z,3.15
2023-04-15T14:59:17.611Z,2.50
2023-04-15T15:01:20.457Z,2.45
2023-04-15T15:03:24.584Z,2.47
2023-04-15T15:05:27.346Z,2.33
2023-04-15T15:07:31.600Z,2.70
2023-04-15T15:09:35.074Z,2.70
2023-04-15T15:11:37.742Z,2.28
2023-04-15T15:13:40.391Z,2.20
2023-04-15T15:15:43.321Z,1.77
2023-04-15T15:17:45.987Z,1.65
2023-04-15T15:19:48.677Z,1.20
2023-04-15T15:21:51.249Z,1.45
2023-04-15T15:23:55.097Z,1.27
2023-04-15T15:25:58.389Z,1.90
2023-04-15T15:28:01.116Z,1.63
2023-04-15T15:30:03.842Z,1.70
2023-04-15T15:32:06.744Z,1.73
2023-04-15T15:34:09.527Z,1.85
2023-04-15T15:36:12.159Z,1.75
2023-04-15T15:38:14.853Z,2.15
2023-04-15T15:40:19.615Z,2.10
2023-04-15T15:42:23.450Z,2.17
2023-04-15T15:44:26.232Z,2.28
2023-04-15T15:46:31.439Z,2.45
2023-04-15T15:48:34.224Z,2.40
2023-04-15T15:50:36.796Z,2.80
2023-04-15T15:52:39.474Z,2.97
2023-04-15T15:54:42.903Z,2.58
2023-04-15T15:56:46.812Z,2.92
2023-04-15T15:58:49.352Z,2.80
2023-04-15T16:00:52.665Z,2.50
2023-04-15T16:03:06.663Z,3.35
2023-04-15T16:05:11.085Z,2.70
2023-04-15T16:07:15.405Z,3.38
2023-04-15T16:09:18.096Z,2.80
2023-04-15T16:11:20.857Z,3.10
2023-04-15T16:13:24.820Z,2.92
2023-04-15T16:15:27.507Z,2.75
2023-04-15T16:17:30.095Z,3.05
2023-04-15T16:19:32.726Z,3.45
2023-04-15T16:21:35.502Z,3.00
2023-04-15T16:23:38.558Z,2.60
2023-04-15T16:25:43.708Z,2.60
2023-04-15T16:27:57.796Z,2.50
2023-04-15T16:30:03.754Z,3.28
2023-04-15T16:32:07.229Z,2.95
2023-04-15T16:34:10.286Z,2.65
2023-04-15T16:36:12.870Z,2.92
2023-04-15T16:38:15.563Z,2.85
2023-04-15T16:40:18.342Z,3.17
2023-04-15T16:42:20.913Z,2.17
2023-04-15T16:44:24.528Z,2.20
2023-04-15T16:46:29.583Z,2.40
2023-04-15T16:48:32.168Z,2.00
2023-04-15T16:50:34.753Z,2.22
2023-04-15T16:52:37.417Z,2.63
2023-04-15T16:54:41.626Z,1.90
2023-04-15T16:56:44.227Z,1.75
2023-04-15T16:58:46.772Z,2.03
2023-04-15T17:00:49.646Z,2.20
2023-04-15T17:02:53.685Z,1.90
2023-04-15T17:04:56.345Z,2.10
2023-04-15T17:06:58.994Z,2.33
2023-04-15T17:09:01.613Z,2.05
2023-04-15T17:11:04.224Z,2.10
2023-04-15T17:13:06.835Z,2.20
2023-04-15T17:15:10.523Z,2.40
2023-04-15T17:17:13.092Z,2.55
2023-04-15T17:19:17.038Z,2.60
2023-04-15T17:21:19.606Z,2.42
2023-04-15T17:23:22.365Z,2.85
2023-04-15T17:25:24.923Z,2.50
2023-04-15T17:27:28.809Z,3.13
2023-04-15T17:29:31.350Z,2.45
2023-04-15T17:31:33.980Z,3.03
2023-04-15T17:34:00.004Z,2.38
2023-04-15T17:36:00.860Z,2.65
2023-04-15T17:38:05.183Z,2.63
2023-04-15T17:40:09.015Z,2.58
2023-04-15T17:42:11.706Z,2.90
2023-04-15T17:44:14.271Z,2.95
2023-04-15T17:46:16.916Z,3.13
2023-04-15T17:48:19.476Z,3.20
2023-04-15T17:50:22.077Z,3.35
2023-04-15T17:52:26.024Z,3.28
2023-04-15T17:54:28.590Z,3.05
2023-04-15T17:56:31.512Z,4.05
2023-04-15T17:58:34.107Z,4.38
2023-04-15T18:00:36.736Z,4.63
2023-04-15T18:02:39.538Z,3.88
2023-04-15T18:04:42.354Z,3.40
2023-04-15T18:06:45.017Z,3.80
2023-04-15T18:08:49.031Z,3.67
2023-04-15T18:10:51.574Z,3.50
2023-04-15T18:12:54.102Z,3.50
2023-04-15T18:14:56.657Z,3.55
2023-04-15T18:16:59.248Z,3.90
2023-04-15T18:19:01.859Z,4.05
2023-04-15T18:21:04.507Z,3.45
2023-04-15T18:23:07.199Z,3.88
2023-04-15T18:25:11.492Z,3.95
2023-04-15T18:27:14.072Z,3.67
2023-04-15T18:29:16.808Z,3.85
2023-04-15T18:31:19.443Z,3.97
2023-04-15T18:33:22.027Z,4.30
2023-04-15T18:35:24.580Z,4.45
2023-04-15T18:37:29.205Z,3.80
2023-04-15T18:39:31.880Z,3.35
2023-04-15T18:41:35.804Z,2.70
2023-04-15T18:43:38.414Z,2.47
2023-04-15T18:45:41.181Z,2.83
2023-04-15T18:47:43.969Z,1.83
2023-04-15T18:49:46.565Z,2.10
2023-04-15T18:51:49.133Z,1.90
2023-04-15T18:53:51.700Z,1.73
2023-04-15T18:55:56.165Z,1.73
2023-04-15T18:58:06.358Z,1.80
2023-04-15T19:00:13.207Z,1.33
2023-04-15T19:02:15.867Z,1.40
2023-04-15T19:04:18.614Z,1.42
2023-04-15T19:06:22.449Z,1.23
2023-04-15T19:08:25.047Z,1.27
2023-04-15T19:10:28.273Z,1.20
2023-04-15T19:12:30.816Z,1.20
2023-04-15T19:14:35.000Z,1.13
2023-04-15T19:16:37.664Z,1.40
2023-04-15T19:18:40.216Z,1.10
2023-04-15T19:20:44.986Z,1.10
2023-04-15T19:22:47.852Z,1.20
2023-04-15T19:24:52.097Z,1.10
2023-04-15T19:26:54.683Z,1.00
2023-04-15T19:28:58.909Z,1.20
2023-04-15T19:31:02.887Z,1.20
2023-04-15T19:33:05.452Z,1.50
2023-04-15T19:35:10.034Z,1.20
2023-04-15T19:37:14.664Z,1.85
2023-04-15T19:39:17.247Z,1.45
2023-04-15T19:41:19.834Z,1.98
2023-04-15T19:43:22.401Z,1.83
2023-04-15T19:45:24.982Z,1.67
2023-04-15T19:47:29.536Z,1.55
2023-04-15T19:49:32.097Z,1.70
2023-04-15T19:51:34.704Z,2.05
2023-04-15T19:53:37.290Z,1.70
2023-04-15T19:55:39.916Z,2.00
2023-04-15T19:57:42.477Z,2.03
2023-04-15T19:59:45.006Z,1.95
2023-04-15T20:01:47.991Z,2.25
2023-04-15T20:03:53.940Z,2.40
2023-04-15T20:05:57.124Z,2.45
2023-04-15T20:08:02.289Z,2.35
2023-04-15T20:10:10.723Z,2.55
2023-04-15T20:12:50.903Z,2.40
2023-04-15T20:14:37.878Z,2.10
2023-04-15T20:16:40.522Z,2.60
2023-04-15T20:18:43.059Z,2.50
2023-04-15T20:20:46.999Z,2.63
2023-04-15T20:22:49.764Z,2.65
2023-04-15T20:24:52.298Z,2.60
2023-04-15T20:26:54.834Z,3.10
2023-04-15T20:28:57.758Z,2.75
2023-04-15T20:31:01.792Z,3.22
2023-04-15T20:33:05.466Z,3.80
2023-04-15T20:35:08.685Z,3.60
2023-04-15T20:37:13.168Z,3.83
2023-04-15T20:39:16.179Z,4.93
2023-04-15T20:41:18.717Z,4.95
2023-04-15T20:43:22.205Z,3.35
2023-04-15T20:45:25.029Z,3.53
2023-04-15T20:47:27.725Z,3.67
2023-04-15T20:49:34.198Z,3.72
2023-04-15T20:51:37.917Z,3.88
2023-04-15T20:53:42.196Z,4.28
2023-04-15T20:55:45.014Z,3.80
2023-04-15T20:57:48.392Z,4.13
2023-04-15T20:59:51.063Z,4.10
2023-04-15T21:01:53.738Z,4.10
2023-04-15T21:03:56.357Z,3.83
2023-04-15T21:05:58.946Z,3.85
2023-04-15T21:08:01.451Z,4.03
2023-04-15T21:10:05.810Z,4.30
2023-04-15T21:12:08.536Z,4.03
2023-04-15T21:14:11.209Z,4.10
2023-04-15T21:16:13.790Z,4.53
2023-04-15T21:18:16.394Z,3.60
2023-04-15T21:20:19.097Z,4.03
2023-04-15T21:22:21.640Z,3.60
2023-04-15T21:24:24.233Z,3.92
2023-04-15T21:26:28.141Z,3.90
2023-04-15T21:28:30.994Z,3.08
2023-04-15T21:30:33.520Z,3.58
2023-04-15T21:32:36.118Z,3.63
2023-04-15T21:34:38.736Z,4.05
2023-04-15T21:36:41.328Z,3.45
2023-04-15T21:38:43.904Z,3.70
2023-04-15T21:40:46.678Z,3.97
2023-04-15T21:42:51.230Z,3.53
2023-04-15T21:44:53.788Z,3.30
2023-04-15T21:46:56.491Z,3.58
2023-04-15T21:48:59.285Z,3.95
2023-04-15T21:51:02.532Z,3.58
2023-04-15T21:53:05.202Z,3.60
2023-04-15T21:55:08.526Z,3.67
2023-04-15T21:57:11.105Z,3.70
2023-04-15T21:59:15.083Z,3.90
2023-04-15T22:01:17.782Z,3.47
2023-04-15T22:03:20.505Z,3.75
2023-04-15T22:05:23.239Z,3.92
2023-04-15T22:07:26.532Z,3.80
2023-04-15T22:09:29.259Z,3.70
2023-04-15T22:11:32.323Z,4.15
2023-04-15T22:13:35.115Z,4.07
2023-04-15T22:15:39.094Z,4.22
2023-04-15T22:17:41.689Z,4.30
2023-04-15T22:19:45.196Z,4.82
2023-04-15T22:21:47.721Z,4.50
2023-04-15T22:23:50.750Z,4.28
2023-04-15T22:25:53.290Z,4.30
2023-04-15T22:27:55.917Z,4.65
2023-04-15T22:29:58.452Z,4.35
2023-04-15T22:32:02.368Z,3.97
2023-04-15T22:34:04.945Z,4.28
2023-04-15T22:36:07.510Z,3.97
2023-04-15T22:38:10.078Z,4.30
2023-04-15T22:40:13.250Z,4.72
2023-04-15T22:42:15.826Z,4.15
2023-04-15T22:44:18.382Z,4.38
2023-04-15T22:46:21.040Z,4.47
2023-04-15T22:48:26.104Z,4.43
2023-04-15T22:50:28.709Z,3.95
2023-04-15T22:52:31.501Z,5.60
2023-04-15T22:54:34.357Z,4.63
2023-04-15T22:56:36.910Z,4.65
2023-04-15T22:58:39.502Z,4.75
2023-04-15T23:00:42.177Z,4.05
2023-04-15T23:02:44.825Z,3.95
2023-04-15T23:04:48.868Z,4.32
2023-04-15T23:06:52.348Z,4.03
2023-04-15T23:08:54.899Z,4.45
2023-04-15T23:10:57.586Z,4.88
2023-04-15T23:13:00.150Z,4.65
2023-04-15T23:15:02.756Z,3.90
2023-04-15T23:17:05.415Z,4.30
2023-04-15T23:19:08.337Z,3.83
2023-04-15T23:21:12.618Z,3.70
2023-04-15T23:23:15.861Z,4.30
2023-04-15T23:25:20.438Z,3.65
2023-04-15T23:27:23.008Z,3.80
2023-04-15T23:29:25.657Z,3.80
2023-04-15T23:31:28.246Z,3.90
2023-04-15T23:33:32.516Z,4.40
2023-04-15T23:35:35.043Z,4.25
2023-04-15T23:37:38.982Z,3.80
2023-04-15T23:39:41.508Z,3.80
2023-04-15T23:41:44.092Z,3.78
2023-04-15T23:43:46.611Z,3.88
2023-04-15T23:45:49.164Z,4.00
2023-04-15T23:47:51.778Z,3.75
2023-04-15T23:49:54.355Z,3.80
2023-04-15T23:51:57.510Z,4.30
2023-04-15T23:54:01.427Z,3.90
2023-04-15T23:56:04.330Z,3.30
2023-04-15T23:58:06.860Z,3.25
